Time;durP1;ratioP1;P1;durP2;ratioP2;P2;SDS_P1;SDS_P2;PMS_P1;PMS_P2;Temp;Humidity;BMP_temperature;BMP_pressure;BME280_temperature;BME280_humidity;BME280_pressure;Samples;Min_cycle;Max_cycle;Signal;HPM_P1;HPM_P2
2022/09/02 00:01:47;;;;;;;10.88;7.63;;;18.20;99.90;;;;;;5013490;28;20419;-47
2022/09/02 00:04:25;;;;;;;11.20;7.80;;;18.10;99.90;;;;;;5014256;28;20025;-50
2022/09/02 00:06:52;;;;;;;9.63;7.22;;;18.10;99.90;;;;;;5014185;28;20030;-48
2022/09/02 00:09:21;;;;;;;9.70;7.57;;;18.10;99.90;;;;;;5000334;28;20023;-50
2022/09/02 00:11:49;;;;;;;9.50;7.57;;;18.10;99.90;;;;;;5014181;28;20037;-52
2022/09/02 00:14:25;;;;;;;9.05;7.22;;;18.10;99.90;;;;;;5014244;28;20030;-53
2022/09/02 00:16:51;;;;;;;8.88;7.50;;;18.10;99.90;;;;;;5014216;28;20026;-52
2022/09/02 00:19:23;;;;;;;10.20;8.07;;;18.10;99.90;;;;;;5014125;28;20018;-49
2022/09/02 00:21:50;;;;;;;12.05;7.68;;;18.00;99.90;;;;;;5013854;28;20026;-51
2022/09/02 00:24:16;;;;;;;9.90;6.53;;;18.00;99.90;;;;;;5014013;28;20033;-51
2022/09/02 00:26:42;;;;;;;12.18;7.25;;;18.00;99.90;;;;;;5013924;28;20039;-50
2022/09/02 00:29:09;;;;;;;14.32;7.38;;;18.00;99.90;;;;;;5013976;28;20030;-51
2022/09/02 00:31:35;;;;;;;10.05;6.85;;;18.00;99.90;;;;;;5013445;28;20123;-48
2022/09/02 00:34:02;;;;;;;12.00;6.95;;;18.00;99.90;;;;;;5013642;28;20448;-52
2022/09/02 00:36:28;;;;;;;10.93;6.65;;;18.00;99.90;;;;;;5014039;28;20052;-49
2022/09/02 00:38:54;;;;;;;8.45;6.07;;;18.00;99.90;;;;;;5013945;28;20620;-48
2022/09/02 00:41:23;;;;;;;9.15;5.30;;;18.00;99.90;;;;;;5013742;28;20026;-53
2022/09/02 00:44:05;;;;;;;12.88;6.05;;;18.00;99.90;;;;;;5013843;28;20037;-51
2022/09/02 00:46:32;;;;;;;8.50;5.88;;;18.00;99.90;;;;;;5013447;28;20488;-52
2022/09/02 00:49:07;;;;;;;8.55;5.57;;;18.00;99.90;;;;;;5012750;28;20054;-50
2022/09/02 00:51:39;;;;;;;10.65;5.88;;;18.00;99.90;;;;;;5013553;28;20026;-49
2022/09/02 00:54:07;;;;;;;7.68;5.63;;;18.00;99.90;;;;;;5013571;28;20046;-48
2022/09/02 00:56:35;;;;;;;9.88;5.22;;;18.00;99.90;;;;;;5013361;28;20054;-48
2022/09/02 00:59:01;;;;;;;9.07;5.63;;;18.00;99.90;;;;;;5013703;28;20080;-47
2022/09/02 01:01:27;;;;;;;10.07;5.30;;;18.00;99.90;;;;;;5010816;28;20441;-48
2022/09/02 01:03:53;;;;;;;6.78;5.57;;;18.00;99.90;;;;;;5013364;28;20079;-50
2022/09/02 01:06:24;;;;;;;9.15;5.22;;;18.00;99.90;;;;;;5013134;28;20030;-51
2022/09/02 01:08:59;;;;;;;8.55;4.85;;;18.40;99.90;;;;;;5002868;28;20038;-52
2022/09/02 01:11:37;;;;;;;7.93;5.00;;;18.00;99.90;;;;;;5010450;28;20054;-48
2022/09/02 01:14:05;;;;;;;12.15;4.53;;;18.00;99.90;;;;;;5012902;28;20060;-51
2022/09/02 01:16:39;;;;;;;10.23;5.10;;;18.00;99.90;;;;;;5013275;28;20037;-48
2022/09/02 01:19:12;;;;;;;8.13;4.43;;;18.00;99.90;;;;;;5013375;28;20030;-48
2022/09/02 01:21:37;;;;;;;6.97;4.53;;;18.00;99.90;;;;;;5013238;28;20080;-49
2022/09/02 01:24:04;;;;;;;13.35;5.03;;;18.00;99.90;;;;;;5013054;28;20026;-53
2022/09/02 01:26:31;;;;;;;6.20;5.07;;;18.00;99.90;;;;;;5012735;28;20080;-48
2022/09/02 01:28:56;;;;;;;10.00;4.90;;;18.00;99.90;;;;;;5012906;28;20488;-53
2022/09/02 01:31:22;;;;;;;7.63;5.43;;;18.00;99.90;;;;;;5012382;28;20115;-50
2022/09/02 01:33:48;;;;;;;7.95;5.57;;;17.90;99.90;;;;;;5012405;28;20049;-52
2022/09/02 01:36:13;;;;;;;9.93;5.80;;;17.90;99.90;;;;;;5012642;28;20025;-48
2022/09/02 01:38:39;;;;;;;11.50;6.32;;;17.70;99.90;;;;;;5012883;28;20033;-53
2022/09/02 01:41:05;;;;;;;10.68;5.63;;;17.80;99.90;;;;;;5012670;28;20448;-51
2022/09/02 01:43:31;;;;;;;10.43;6.13;;;17.70;99.90;;;;;;5012675;28;20374;-50
2022/09/02 01:45:57;;;;;;;8.23;6.25;;;17.70;99.90;;;;;;5012536;28;20108;-51
2022/09/02 01:48:23;;;;;;;10.85;6.13;;;17.70;99.90;;;;;;5012293;28;20535;-49
2022/09/02 01:50:54;;;;;;;7.25;5.63;;;17.70;99.90;;;;;;5012148;28;20034;-51
2022/09/02 01:53:20;;;;;;;8.32;6.43;;;17.70;99.90;;;;;;5012320;28;20422;-53
2022/09/02 01:55:46;;;;;;;12.32;6.90;;;17.70;99.90;;;;;;5012293;28;20068;-53
2022/09/02 01:58:12;;;;;;;9.88;6.97;;;17.70;99.90;;;;;;5012167;28;20017;-48
2022/09/02 02:00:37;;;;;;;8.65;6.90;;;17.70;99.90;;;;;;5011518;28;20061;-50
2022/09/02 02:03:05;;;;;;;12.38;6.32;;;17.70;99.90;;;;;;5011619;28;20026;-50
2022/09/02 02:05:31;;;;;;;10.85;6.68;;;17.70;99.90;;;;;;5012013;28;20029;-48
2022/09/02 02:07:56;;;;;;;10.18;7.03;;;17.70;99.90;;;;;;5008760;28;20038;-55
2022/09/02 02:10:22;;;;;;;8.20;6.00;;;17.80;99.90;;;;;;5001707;28;20030;-48
2022/09/02 02:12:48;;;;;;;12.55;6.70;;;17.80;99.90;;;;;;5012056;28;20022;-53
2022/09/02 02:15:18;;;;;;;8.40;5.65;;;17.80;99.90;;;;;;5012024;28;20033;-48
2022/09/02 02:17:44;;;;;;;11.07;6.18;;;17.80;99.90;;;;;;5011918;28;20037;-54
2022/09/02 02:20:12;;;;;;;11.27;6.40;;;17.90;99.90;;;;;;5011501;28;20120;-50
2022/09/02 02:22:38;;;;;;;10.98;5.70;;;17.90;99.90;;;;;;5011850;28;20113;-55
2022/09/02 02:25:05;;;;;;;8.15;5.40;;;17.80;99.90;;;;;;5011764;28;20021;-48
2022/09/02 02:27:31;;;;;;;7.60;5.45;;;17.90;99.90;;;;;;4994117;28;20500;-47
2022/09/02 02:29:57;;;;;;;6.75;5.72;;;17.80;99.90;;;;;;5011713;28;20061;-51
2022/09/02 02:32:24;;;;;;;5.88;4.82;;;17.80;99.90;;;;;;5011685;28;20374;-51
2022/09/02 02:34:50;;;;;;;11.35;5.22;;;17.90;99.90;;;;;;5011695;28;20037;-50
2022/09/02 02:37:16;;;;;;;8.23;5.47;;;17.90;99.90;;;;;;4994117;28;20033;-50
2022/09/02 02:39:42;;;;;;;12.52;5.18;;;17.90;99.90;;;;;;5011680;28;20026;-52
2022/09/02 02:42:11;;;;;;;7.32;5.30;;;17.80;99.90;;;;;;5011499;28;20412;-54
2022/09/02 02:44:38;;;;;;;7.57;5.43;;;17.80;99.90;;;;;;5011484;28;20026;-49
2022/09/02 02:47:04;;;;;;;8.98;6.18;;;17.80;99.90;;;;;;5011352;28;20052;-53
2022/09/02 02:49:29;;;;;;;7.82;6.00;;;17.70;99.90;;;;;;5011422;28;20404;-54
2022/09/02 02:51:55;;;;;;;8.18;5.45;;;17.70;99.90;;;;;;5010746;28;20037;-48
2022/09/02 02:54:21;;;;;;;7.50;6.32;;;17.80;99.90;;;;;;5011088;28;20065;-48
2022/09/02 02:56:47;;;;;;;7.65;6.47;;;17.80;99.90;;;;;;5011447;28;20029;-51
2022/09/02 02:59:13;;;;;;;8.93;5.38;;;17.80;99.90;;;;;;5011150;28;20034;-51
2022/09/02 03:01:38;;;;;;;12.02;5.85;;;17.80;99.90;;;;;;5011057;28;20076;-48
2022/09/02 03:04:05;;;;;;;9.15;5.10;;;17.80;99.90;;;;;;5011101;28;20104;-50
2022/09/02 03:06:31;;;;;;;10.02;5.05;;;17.70;99.90;;;;;;5011225;28;20033;-49
2022/09/02 03:08:58;;;;;;;10.18;5.10;;;17.70;99.90;;;;;;4999910;28;20030;-48
2022/09/02 03:11:27;;;;;;;12.40;5.60;;;17.70;99.90;;;;;;5009047;28;20034;-48
2022/09/02 03:13:53;;;;;;;9.15;5.20;;;17.70;99.90;;;;;;5010739;28;20034;-48
2022/09/02 03:16:19;;;;;;;10.32;5.75;;;17.70;99.90;;;;;;5011245;28;20030;-52
2022/09/02 03:18:46;;;;;;;10.88;6.40;;;17.70;99.90;;;;;;5011262;28;20034;-50
2022/09/02 03:21:14;;;;;;;11.50;6.63;;;17.70;99.90;;;;;;5010879;28;20069;-50
2022/09/02 03:23:41;;;;;;;10.15;6.15;;;17.60;99.90;;;;;;4999161;28;20037;-51
2022/09/02 03:26:12;;;;;;;9.35;5.70;;;17.60;99.90;;;;;;5004406;28;20504;-52
2022/09/02 03:28:38;;;;;;;7.38;6.00;;;17.60;99.90;;;;;;5003527;28;20042;-54
2022/09/02 03:31:04;;;;;;;9.02;5.75;;;17.60;99.90;;;;;;5000162;28;20101;-49
2022/09/02 03:33:30;;;;;;;7.60;5.43;;;17.60;99.90;;;;;;5008355;28;20029;-54
2022/09/02 03:35:56;;;;;;;6.68;5.05;;;17.60;99.90;;;;;;5011166;28;20037;-50
2022/09/02 03:38:21;;;;;;;7.57;5.45;;;17.60;99.90;;;;;;5009871;28;20018;-51
2022/09/02 03:40:47;;;;;;;10.15;5.05;;;17.50;99.90;;;;;;4998365;28;20373;-54
2022/09/02 03:43:13;;;;;;;9.73;5.40;;;17.60;99.90;;;;;;5011021;28;20535;-50
2022/09/02 03:45:40;;;;;;;8.85;5.32;;;17.50;99.90;;;;;;5010764;28;20505;-52
2022/09/02 03:48:06;;;;;;;8.02;5.32;;;17.50;99.90;;;;;;5011002;28;20100;-49
2022/09/02 03:50:39;;;;;;;9.82;4.78;;;17.50;99.90;;;;;;5010890;28;20030;-50
2022/09/02 03:53:06;;;;;;;11.30;4.22;;;17.50;99.90;;;;;;5010735;28;20037;-50
2022/09/02 03:55:34;;;;;;;7.30;4.53;;;17.50;99.90;;;;;;5008838;28;20108;-48
2022/09/02 03:58:00;;;;;;;7.47;4.82;;;17.50;99.90;;;;;;4999384;28;20358;-49
2022/09/02 04:00:30;;;;;;;6.72;4.10;;;17.50;99.90;;;;;;5010454;28;20045;-56
2022/09/02 04:02:57;;;;;;;8.52;4.15;;;17.40;99.90;;;;;;5010785;28;20034;-49
2022/09/02 04:05:23;;;;;;;7.30;4.22;;;17.10;99.90;;;;;;5010809;28;20030;-53
2022/09/02 04:07:51;;;;;;;7.72;4.03;;;17.40;99.90;;;;;;5010582;28;20133;-52
2022/09/02 04:10:17;;;;;;;5.28;3.97;;;17.40;99.90;;;;;;5010625;28;20030;-52
2022/09/02 04:12:43;;;;;;;6.63;4.20;;;17.40;99.90;;;;;;5010846;28;20026;-52
2022/09/02 04:15:10;;;;;;;8.13;4.45;;;17.40;99.90;;;;;;5010794;28;20358;-50
2022/09/02 04:17:38;;;;;;;7.03;4.10;;;17.40;99.90;;;;;;5010522;28;20485;-53
2022/09/02 04:20:05;;;;;;;8.48;4.78;;;17.40;99.90;;;;;;5010639;28;20026;-54
2022/09/02 04:22:31;;;;;;;7.70;4.00;;;17.40;99.90;;;;;;5010136;28;20045;-51
2022/09/02 04:24:57;;;;;;;8.98;3.83;;;17.40;99.90;;;;;;5011517;28;20018;-55
2022/09/02 04:27:23;;;;;;;12.30;3.90;;;17.40;99.90;;;;;;5014050;28;20396;-54
2022/09/02 04:29:48;;;;;;;8.43;3.78;;;17.40;99.90;;;;;;5010845;28;20355;-52
2022/09/02 04:32:14;;;;;;;6.30;3.80;;;17.40;99.90;;;;;;5003372;28;20021;-53
2022/09/02 04:34:40;;;;;;;6.45;3.92;;;17.40;99.90;;;;;;5013719;28;20453;-52
2022/09/02 04:37:06;;;;;;;7.93;4.20;;;17.40;99.90;;;;;;5013876;28;20046;-54
2022/09/02 04:39:31;;;;;;;7.63;4.43;;;17.40;99.90;;;;;;5013791;28;20058;-49
2022/09/02 04:41:57;;;;;;;7.53;4.47;;;17.30;99.90;;;;;;5013734;28;20042;-50
2022/09/02 04:44:24;;;;;;;9.27;4.80;;;17.40;99.90;;;;;;5013668;28;20087;-55
2022/09/02 04:46:50;;;;;;;7.10;4.10;;;17.30;99.90;;;;;;5013550;28;20076;-51
2022/09/02 04:49:16;;;;;;;5.30;4.18;;;18.00;99.90;;;;;;5013714;28;20029;-48
2022/09/02 04:51:42;;;;;;;7.63;4.30;;;17.30;99.90;;;;;;5013367;28;20129;-48
2022/09/02 04:54:07;;;;;;;8.13;4.50;;;17.30;99.90;;;;;;5013505;28;20369;-51
2022/09/02 04:56:33;;;;;;;7.05;4.43;;;17.30;99.90;;;;;;5000403;28;20026;-46
2022/09/02 04:59:00;;;;;;;10.38;4.28;;;17.30;99.90;;;;;;4993789;28;20030;-46
2022/09/02 05:01:31;;;;;;;8.65;4.20;;;17.30;99.90;;;;;;4993700;28;20042;-47
2022/09/02 05:03:57;;;;;;;10.20;4.72;;;17.30;99.90;;;;;;4993599;28;20092;-47
2022/09/02 05:06:26;;;;;;;9.38;4.03;;;17.30;99.90;;;;;;4993618;28;20026;-53
2022/09/02 05:08:53;;;;;;;4.95;4.40;;;17.30;99.90;;;;;;4993426;28;20030;-47
2022/09/02 05:11:22;;;;;;;11.45;4.78;;;17.40;99.90;;;;;;4993478;28;20477;-49
2022/09/02 05:13:52;;;;;;;9.85;4.53;;;17.40;99.90;;;;;;4993564;28;20034;-48
2022/09/02 05:16:25;;;;;;;5.68;4.35;;;17.40;99.90;;;;;;4993543;28;20108;-51
2022/09/02 05:18:53;;;;;;;10.20;4.70;;;17.40;99.90;;;;;;4993243;28;20034;-52
2022/09/02 05:21:19;;;;;;;7.72;4.45;;;17.40;99.90;;;;;;4999378;28;20029;-52
2022/09/02 05:23:45;;;;;;;7.70;4.40;;;17.40;99.90;;;;;;5006081;28;20041;-51
2022/09/02 05:26:12;;;;;;;8.82;4.43;;;17.40;99.90;;;;;;4999005;28;20555;-48
2022/09/02 05:28:39;;;;;;;11.38;5.05;;;17.40;99.90;;;;;;4993195;28;20508;-53
2022/09/02 05:31:09;;;;;;;9.95;5.28;;;17.40;99.90;;;;;;4993234;28;20029;-48
2022/09/02 05:33:37;;;;;;;9.88;4.70;;;17.40;99.90;;;;;;4999084;28;20034;-51
2022/09/02 05:36:04;;;;;;;8.32;4.68;;;17.40;99.90;;;;;;5012500;28;20030;-51
2022/09/02 05:38:30;;;;;;;7.22;5.15;;;17.40;99.90;;;;;;5012790;28;20465;-52
2022/09/02 05:40:58;;;;;;;7.28;4.55;;;17.40;99.90;;;;;;5012691;28;20136;-48
2022/09/02 05:43:24;;;;;;;9.90;4.85;;;17.40;99.90;;;;;;5012553;28;20049;-47
2022/09/02 05:45:50;;;;;;;12.70;5.80;;;17.40;99.90;;;;;;5012662;28;20065;-50
2022/09/02 05:51:04;;;;;;;11.43;5.63;;;17.40;99.90;;;;;;5012447;28;20076;-48
2022/09/02 05:53:31;;;;;;;8.75;5.53;;;17.30;99.90;;;;;;5012394;28;20091;-52
2022/09/02 05:55:57;;;;;;;9.35;5.22;;;17.20;99.90;;;;;;5012430;28;20449;-54
2022/09/02 05:58:23;;;;;;;8.00;5.30;;;17.30;99.90;;;;;;5012247;28;20051;-48
2022/09/02 06:00:49;;;;;;;8.45;5.47;;;17.30;99.90;;;;;;5012144;28;20459;-49
2022/09/02 06:03:18;;;;;;;10.05;5.03;;;17.30;99.90;;;;;;5012238;28;20033;-47
2022/09/02 06:05:54;;;;;;;9.70;5.93;;;17.40;99.90;;;;;;5012149;28;20076;-49
2022/09/02 06:08:19;;;;;;;8.25;4.95;;;17.40;99.90;;;;;;5012060;28;20045;-48
2022/09/02 06:10:45;;;;;;;5.97;4.50;;;17.50;99.90;;;;;;5011951;28;20022;-47
2022/09/02 06:13:11;;;;;;;8.68;4.97;;;17.50;99.90;;;;;;5011996;28;20447;-47
2022/09/02 06:15:42;;;;;;;7.60;4.90;;;17.50;99.90;;;;;;5012004;28;20453;-49
2022/09/02 06:18:09;;;;;;;10.02;5.20;;;17.60;99.90;;;;;;5012196;28;20108;-48
2022/09/02 06:20:39;;;;;;;12.43;5.07;;;17.70;99.90;;;;;;5011620;28;20057;-48
2022/09/02 06:23:05;;;;;;;7.82;4.70;;;17.70;99.90;;;;;;4994355;28;20040;-53
2022/09/02 06:25:30;;;;;;;10.63;5.65;;;17.80;99.90;;;;;;5011659;28;20022;-47
2022/09/02 06:27:56;;;;;;;14.50;6.22;;;17.90;99.90;;;;;;5011344;28;20046;-47
2022/09/02 06:30:22;;;;;;;12.65;5.63;;;18.00;99.90;;;;;;5000455;28;20389;-47
2022/09/02 06:32:48;;;;;;;8.50;5.10;;;18.10;99.90;;;;;;4987380;28;20495;-50
2022/09/02 06:35:14;;;;;;;10.30;5.38;;;18.20;99.90;;;;;;5007463;28;20036;-49
2022/09/02 06:37:40;;;;;;;8.10;5.47;;;18.30;99.90;;;;;;5007037;28;21856;-52
2022/09/02 06:40:06;;;;;;;9.13;5.07;;;18.40;99.90;;;;;;5009781;28;20022;-48
2022/09/02 06:42:32;;;;;;;8.77;5.20;;;18.50;99.90;;;;;;5010865;28;20026;-49
2022/09/02 06:44:58;;;;;;;7.68;4.65;;;18.70;99.90;;;;;;5005958;28;20067;-53
2022/09/02 06:47:24;;;;;;;9.98;5.20;;;18.80;99.90;;;;;;4990796;28;20045;-49
2022/09/02 06:49:49;;;;;;;7.57;5.00;;;18.90;99.90;;;;;;4991776;28;20026;-50
2022/09/02 06:52:15;;;;;;;9.38;4.85;;;19.00;99.90;;;;;;4991702;28;20030;-51
2022/09/02 06:54:41;;;;;;;8.68;4.30;;;19.10;99.90;;;;;;4993482;28;20076;-49
2022/09/02 06:57:06;;;;;;;9.45;4.82;;;19.30;99.90;;;;;;5002184;28;20027;-49
2022/09/02 06:59:32;;;;;;;8.23;4.32;;;19.40;99.90;;;;;;5008109;28;20030;-52
2022/09/02 07:01:58;;;;;;;9.70;4.72;;;19.50;99.90;;;;;;5007291;28;20046;-47
2022/09/02 07:07:08;;;;;;;9.95;4.07;;;19.70;99.90;;;;;;4992260;28;20559;-50
2022/09/02 07:09:34;;;;;;;5.90;3.85;;;19.70;99.90;;;;;;5002755;28;20050;-49
2022/09/02 07:12:02;;;;;;;7.30;3.60;;;19.70;99.90;;;;;;5004611;28;20018;-54
2022/09/02 07:14:28;;;;;;;7.40;3.47;;;19.50;99.90;;;;;;5002902;28;20026;-51
2022/09/02 07:16:56;;;;;;;7.30;3.80;;;19.80;99.90;;;;;;5002811;28;20032;-52
2022/09/02 07:19:23;;;;;;;6.80;4.18;;;19.60;99.90;;;;;;4992268;28;20062;-51
2022/09/02 07:21:49;;;;;;;7.95;4.10;;;19.60;99.90;;;;;;4991333;28;20027;-49
2022/09/02 07:24:16;;;;;;;9.00;3.80;;;19.70;99.90;;;;;;4991555;28;20085;-52
2022/09/02 07:26:43;;;;;;;10.00;3.88;;;19.70;99.90;;;;;;4991220;28;20018;-52
2022/09/02 07:29:10;;;;;;;8.85;3.78;;;19.70;99.90;;;;;;4991464;28;20030;-52
2022/09/02 07:31:37;;;;;;;9.23;3.90;;;19.80;99.90;;;;;;4995150;28;20018;-49
2022/09/02 07:34:04;;;;;;;9.30;3.65;;;19.80;99.90;;;;;;5011089;28;20030;-51
2022/09/02 07:36:30;;;;;;;9.35;3.83;;;19.90;99.90;;;;;;5010504;28;20030;-52
2022/09/02 07:38:56;;;;;;;7.20;3.65;;;19.90;99.90;;;;;;5002790;28;20457;-51
2022/09/02 07:41:23;;;;;;;6.93;3.40;;;20.00;99.90;;;;;;5008990;28;20056;-49
2022/09/02 07:43:48;;;;;;;8.00;3.30;;;20.00;99.90;;;;;;5004051;28;20033;-53
2022/09/02 07:46:15;;;;;;;7.35;3.25;;;20.00;99.90;;;;;;5009764;28;20030;-50
2022/09/02 07:48:41;;;;;;;9.40;3.47;;;20.10;99.90;;;;;;5010041;28;20088;-49
2022/09/02 07:51:07;;;;;;;6.15;3.53;;;20.20;99.90;;;;;;5008150;28;20022;-49
2022/09/02 07:53:33;;;;;;;8.70;3.22;;;20.10;99.90;;;;;;5002890;28;20086;-49
2022/09/02 07:55:59;;;;;;;10.15;3.60;;;20.30;99.90;;;;;;5000902;28;20026;-53
2022/09/02 07:58:25;;;;;;;8.15;3.30;;;20.50;99.90;;;;;;5005770;28;20038;-51
2022/09/02 08:00:52;;;;;;;7.72;3.30;;;20.80;99.90;;;;;;5009155;28;20057;-49
2022/09/02 08:03:18;;;;;;;6.07;2.45;;;21.30;99.90;;;;;;5004235;28;20026;-52
2022/09/02 08:05:45;;;;;;;12.25;3.03;;;21.70;99.90;;;;;;5004247;28;20404;-48
2022/09/02 08:08:12;;;;;;;6.03;2.47;;;22.10;99.90;;;;;;5004789;28;20030;-55
2022/09/02 08:10:39;;;;;;;7.50;2.53;;;22.30;99.90;;;;;;5003433;28;20045;-53
2022/09/02 08:13:05;;;;;;;5.97;2.00;;;22.40;99.90;;;;;;5011719;28;20018;-51
2022/09/02 08:15:34;;;;;;;6.03;2.65;;;22.90;99.90;;;;;;5006763;28;20486;-57
2022/09/02 08:18:00;;;;;;;6.18;2.40;;;22.90;99.90;;;;;;5007834;28;20026;-52
2022/09/02 08:20:26;;;;;;;6.00;2.50;;;22.90;99.90;;;;;;5009353;28;20045;-53
2022/09/02 08:22:52;;;;;;;10.60;3.03;;;22.90;99.90;;;;;;5006360;28;20473;-50
2022/09/02 08:25:17;;;;;;;7.35;2.92;;;22.50;99.90;;;;;;5007604;28;20018;-49
2022/09/02 08:27:44;;;;;;;6.80;2.95;;;22.30;99.90;;;;;;4996267;28;20035;-52
2022/09/02 08:30:11;;;;;;;12.32;2.97;;;22.10;99.90;;;;;;5004954;28;20021;-51
2022/09/02 08:32:40;;;;;;;6.88;3.15;;;22.00;99.90;;;;;;5010806;28;20084;-54
2022/09/02 08:35:07;;;;;;;;;;;22.10;99.90;;;;;;5009686;28;20022;-51
2022/09/02 08:37:34;;;;;;;6.43;2.58;;;22.20;99.90;;;;;;5007595;28;19910;-52
2022/09/02 08:40:03;;;;;;;6.65;2.55;;;22.30;99.90;;;;;;5009505;28;20031;-48
2022/09/02 08:42:48;;;;;;;13.45;2.50;;;22.50;99.90;;;;;;5006068;28;20049;-47
2022/09/02 08:45:19;;;;;;;6.85;2.63;;;22.60;99.90;;;;;;5006985;28;20034;-52
2022/09/02 08:47:49;;;;;;;10.15;2.83;;;22.70;99.90;;;;;;5008585;28;20052;-52
2022/09/02 08:50:17;;;;;;;7.88;2.75;;;22.70;99.90;;;;;;4993818;28;20068;-52
2022/09/02 08:52:50;;;;;;;6.80;2.60;;;22.60;99.90;;;;;;5006435;28;20029;-49
2022/09/02 08:55:24;;;;;;;10.57;3.28;;;22.70;99.90;;;;;;5008997;28;20029;-50
2022/09/02 08:57:50;;;;;;;9.70;2.90;;;22.80;99.90;;;;;;4993121;28;20384;-47
2022/09/02 09:00:16;;;;;;;6.47;2.40;;;23.00;99.90;;;;;;5007363;28;20610;-53
2022/09/02 09:02:55;;;;;;;6.68;3.15;;;23.40;99.90;;;;;;5008753;28;20037;-48
2022/09/02 09:05:46;;;;;;;6.22;2.65;;;23.90;99.90;;;;;;5006688;28;20030;-47
2022/09/02 09:08:49;;;;;;;9.07;2.53;;;24.00;99.90;;;;;;5010194;28;20041;-47
2022/09/02 09:11:25;;;;;;;8.00;2.60;;;24.50;99.90;;;;;;5006991;28;20026;-50
2022/09/02 09:14:21;;;;;;;9.73;2.63;;;24.60;99.90;;;;;;5009711;28;20026;-52
2022/09/02 09:16:55;;;;;;;6.75;2.40;;;24.70;99.90;;;;;;5004346;28;20053;-52
2022/09/02 09:19:27;;;;;;;10.65;2.78;;;24.80;99.90;;;;;;5006805;28;20357;-52
2022/09/02 09:21:54;;;;;;;6.43;2.40;;;24.50;99.90;;;;;;5007441;28;20025;-53
2022/09/02 09:24:23;;;;;;;7.50;2.80;;;24.30;99.90;;;;;;5008669;28;20473;-50
2022/09/02 09:26:49;;;;;;;7.68;2.97;;;24.10;99.90;;;;;;5010639;28;20033;-47
2022/09/02 09:29:14;;;;;;;4.80;2.00;;;23.80;99.90;;;;;;5005698;28;20021;-49
2022/09/02 09:31:41;;;;;;;6.10;2.15;;;23.50;99.90;;;;;;5005084;28;20005;-50
2022/09/02 09:34:10;;;;;;;9.65;2.60;;;23.40;99.90;;;;;;5009375;28;20092;-49
2022/09/02 09:36:54;;;;;;;;;;;23.30;99.90;;;;;;5006234;28;20068;-45
2022/09/02 09:39:31;;;;;;;7.38;2.47;;;23.20;99.90;;;;;;5005309;28;19913;-48
2022/09/02 09:42:12;;;;;;;7.80;2.50;;;23.10;99.90;;;;;;5003996;28;20511;-47
2022/09/02 09:44:43;;;;;;;9.10;2.60;;;23.00;99.90;;;;;;5006926;28;20036;-49
2022/09/02 09:47:24;;;;;;;6.47;2.50;;;23.00;99.90;;;;;;4997505;28;20037;-49
2022/09/02 09:49:52;;;;;;;9.43;3.03;;;23.10;99.90;;;;;;5006884;28;20116;-50
2022/09/02 09:52:27;;;;;;;8.17;2.77;;;22.90;99.90;;;;;;4993040;28;20026;-50
2022/09/02 09:55:18;;;;;;;5.65;2.58;;;22.70;99.90;;;;;;4999835;28;20059;-52
2022/09/02 09:57:46;;;;;;;5.60;2.60;;;22.70;99.90;;;;;;5000324;28;20539;-48
2022/09/02 10:00:33;;;;;;;5.60;2.53;;;22.50;99.90;;;;;;4995790;28;20029;-50
2022/09/02 10:03:05;;;;;;;7.75;3.00;;;22.40;99.90;;;;;;4992713;28;20030;-50
2022/09/02 10:05:36;;;;;;;8.57;2.90;;;22.30;99.90;;;;;;4992344;28;20026;-53
2022/09/02 10:08:17;;;;;;;6.15;3.10;;;23.40;99.90;;;;;;4999483;28;20120;-50
2022/09/02 10:10:56;;;;;;;6.93;3.08;;;22.00;99.90;;;;;;5005772;28;20026;-49
2022/09/02 10:13:24;;;;;;;;;;;21.90;99.90;;;;;;5006855;28;20084;-48
2022/09/02 10:15:55;;;;;;;12.73;4.68;;;21.80;99.90;;;;;;5004354;28;20356;-47
2022/09/02 10:18:39;;;;;;;7.63;3.72;;;21.70;99.90;;;;;;5004029;28;20373;-46
2022/09/02 10:21:22;;;;;;;8.77;3.22;;;21.70;99.90;;;;;;5004261;28;20033;-55
2022/09/02 10:24:10;;;;;;;9.15;4.13;;;21.70;99.90;;;;;;4997308;28;20027;-47
2022/09/02 10:26:48;;;;;;;8.60;4.18;;;21.70;99.90;;;;;;4997096;28;20038;-52
2022/09/02 10:29:43;;;;;;;6.57;3.17;;;21.70;99.90;;;;;;4999543;28;20025;-47
2022/09/02 10:32:33;;;;;;;10.55;3.83;;;21.70;99.90;;;;;;5004725;28;20381;-48
2022/09/02 10:35:10;;;;;;;9.00;3.78;;;21.70;99.90;;;;;;4978353;28;20407;-48
2022/09/02 10:38:08;;;;;;;7.03;3.60;;;21.80;99.90;;;;;;5007201;28;20053;-50
2022/09/02 10:40:48;;;;;;;8.50;3.75;;;21.90;99.90;;;;;;4999902;28;20033;-49
2022/09/02 10:43:52;;;;;;;6.85;3.40;;;21.90;99.90;;;;;;5003330;28;20170;-57
2022/09/02 10:46:23;;;;;;;8.20;3.53;;;22.00;99.90;;;;;;4980488;28;20055;-47
2022/09/02 10:49:10;;;;;;;10.13;3.72;;;22.20;99.90;;;;;;5005457;28;20041;-48
2022/09/02 10:52:19;;;;;;;8.35;3.55;;;22.30;99.90;;;;;;4980421;28;20530;-46
2022/09/02 10:54:47;;;;;;;;;;;22.50;99.90;;;;;;4946938;28;20377;-47
2022/09/02 10:57:25;;;;;;;5.65;3.05;;;22.60;99.90;;;;;;4984342;28;20514;-46
2022/09/02 11:00:09;;;;;;;7.65;3.33;;;22.70;99.90;;;;;;4997320;28;20034;-47
2022/09/02 11:02:44;;;;;;;10.43;3.70;;;22.80;99.90;;;;;;5005882;28;20077;-50
2022/09/02 11:05:22;;;;;;;7.30;3.45;;;22.90;99.90;;;;;;5001067;28;20022;-50
2022/09/02 11:07:48;;;;;;;8.15;3.40;;;23.10;99.90;;;;;;4998368;28;20037;-57
2022/09/02 11:10:29;;;;;;;7.22;3.95;;;23.50;99.90;;;;;;5002750;28;20022;-47
2022/09/02 11:13:21;;;;;;;9.02;3.90;;;23.90;99.90;;;;;;5004946;28;20615;-47
2022/09/02 11:15:47;;;;;;;9.30;4.32;;;24.20;99.90;;;;;;5002493;28;20057;-50
2022/09/02 11:18:24;;;;;;;10.13;4.00;;;24.50;99.90;;;;;;4980002;28;20053;-50
2022/09/02 11:21:02;;;;;;;9.90;3.63;;;24.60;99.90;;;;;;4991621;28;20034;-51
2022/09/02 11:24:14;;;;;;;8.35;3.70;;;24.50;99.90;;;;;;5003428;28;20033;-47
2022/09/02 11:27:11;;;;;;;6.82;3.42;;;24.50;99.90;;;;;;4972598;28;20041;-49
2022/09/02 11:30:00;;;;;;;9.40;4.03;;;24.40;99.90;;;;;;4998651;28;20076;-47
2022/09/02 11:32:39;;;;;;;10.23;4.68;;;24.20;99.90;;;;;;5008391;28;20388;-51
2022/09/02 11:35:26;;;;;;;8.50;4.03;;;24.10;99.90;;;;;;5009363;28;20084;-47
2022/09/02 11:38:14;;;;;;;10.63;4.43;;;23.90;99.90;;;;;;4999423;28;20030;-52
2022/09/02 11:40:59;;;;;;;8.07;3.70;;;23.80;99.90;;;;;;4999662;28;20019;-48
2022/09/02 11:43:46;;;;;;;7.97;4.10;;;23.80;99.90;;;;;;5004373;28;20041;-53
2022/09/02 11:46:18;;;;;;;7.00;3.80;;;23.70;99.90;;;;;;4991950;28;20029;-46
2022/09/02 11:49:09;;;;;;;11.13;3.72;;;23.60;99.90;;;;;;5006107;28;20041;-51
2022/09/02 11:51:35;;;;;;;7.03;3.80;;;23.60;99.90;;;;;;4998676;28;20045;-51
2022/09/02 11:54:02;;;;;;;7.72;3.92;;;23.40;99.90;;;;;;4999836;28;20018;-53
2022/09/02 11:56:36;;;;;;;9.82;3.88;;;23.20;99.90;;;;;;5009434;28;20033;-51
2022/09/02 11:59:02;;;;;;;10.43;4.15;;;23.00;99.90;;;;;;4992317;28;20022;-53
2022/09/02 12:01:38;;;;;;;9.05;4.30;;;22.90;99.90;;;;;;5007875;28;20053;-49
2022/09/02 12:04:25;;;;;;;6.10;3.70;;;22.80;99.90;;;;;;5008516;28;20136;-48
2022/09/02 12:07:06;;;;;;;7.88;3.40;;;22.70;99.90;;;;;;5010801;28;20077;-50
2022/09/02 12:09:44;;;;;;;6.68;3.70;;;22.60;99.90;;;;;;5011693;28;20148;-52
2022/09/02 12:12:35;;;;;;;6.35;3.90;;;22.60;99.90;;;;;;5006021;28;20022;-50
2022/09/02 12:15:14;;;;;;;9.93;4.20;;;22.60;99.90;;;;;;5004927;28;20018;-50
2022/09/02 12:17:48;;;;;;;6.30;3.97;;;22.50;99.90;;;;;;5003989;28;20258;-47
2022/09/02 12:20:36;;;;;;;10.15;4.50;;;22.50;99.90;;;;;;5009461;28;20038;-47
2022/09/02 12:23:02;;;;;;;10.60;4.35;;;22.50;99.90;;;;;;4996068;28;20025;-48
2022/09/02 12:25:36;;;;;;;6.90;4.45;;;22.50;99.90;;;;;;5006905;28;20060;-53
2022/09/02 12:28:25;;;;;;;9.73;4.00;;;22.50;99.90;;;;;;5005449;28;20358;-47
2022/09/02 12:30:54;;;;;;;8.30;4.73;;;22.50;99.90;;;;;;5006903;28;20428;-49
2022/09/02 12:33:32;;;;;;;11.77;4.68;;;22.60;99.90;;;;;;5010253;28;20446;-49
2022/09/02 12:35:58;;;;;;;8.80;4.82;;;22.60;99.90;;;;;;5012537;28;20072;-52
2022/09/02 12:38:30;;;;;;;8.10;4.60;;;22.60;99.90;;;;;;5007982;28;20041;-47
2022/09/02 12:41:05;;;;;;;10.82;4.95;;;22.70;99.90;;;;;;4999465;28;20033;-49
2022/09/02 12:43:46;;;;;;;11.27;4.78;;;22.60;99.90;;;;;;5007446;28;20022;-49
2022/09/02 12:46:32;;;;;;;10.07;4.78;;;22.50;99.90;;;;;;4988215;28;20026;-47
2022/09/02 12:49:13;;;;;;;11.00;4.57;;;22.40;99.90;;;;;;5008244;28;20038;-50
2022/09/02 12:51:56;;;;;;;12.45;4.82;;;22.40;99.90;;;;;;5006789;28;20030;-49
2022/09/02 12:54:47;;;;;;;9.95;5.03;;;22.40;99.90;;;;;;5003593;28;20195;-47
2022/09/02 12:57:17;;;;;;;12.00;4.95;;;22.40;99.90;;;;;;4997676;28;20030;-46
2022/09/02 12:59:45;;;;;;;9.93;4.72;;;22.30;99.90;;;;;;4995952;28;20026;-47
2022/09/02 13:02:15;;;;;;;12.20;5.20;;;22.40;99.90;;;;;;4996294;28;20078;-46
2022/09/02 13:04:59;;;;;;;13.55;5.03;;;22.40;99.90;;;;;;5005422;28;20056;-47
2022/09/02 13:07:30;;;;;;;8.70;4.70;;;22.40;99.90;;;;;;4994763;28;20034;-47
2022/09/02 13:10:17;;;;;;;11.82;5.35;;;22.40;99.90;;;;;;4993655;28;20033;-51